sensor_id;sensor_type;location;lat;lon;timestamp;P1;durP1;ratioP1;P2;durP2;ratioP2
78181;SDS011;67441;50.116;8.696;2023-04-19T00:00:44;5.55;;;4.13;;
78181;SDS011;67441;50.116;8.696;2023-04-19T00:01:36;6.72;;;4.88;;
78181;SDS011;67441;50.116;8.696;2023-04-19T00:02:27;6.13;;;4.28;;
78181;SDS011;67441;50.116;8.696;2023-04-19T00:03:18;6.88;;;4.57;;
78181;SDS011;67441;50.116;8.696;2023-04-19T00:04:09;6.55;;;4.45;;
78181;SDS011;67441;50.116;8.696;2023-04-19T00:05:02;5.28;;;4.05;;
78181;SDS011;67441;50.116;8.696;2023-04-19T00:05:53;6.28;;;4.53;;
78181;SDS011;67441;50.116;8.696;2023-04-19T00:06:45;6.00;;;4.43;;
78181;SDS011;67441;50.116;8.696;2023-04-19T00:07:11;6.47;;;4.80;;
78181;SDS011;67441;50.116;8.696;2023-04-19T00:07:37;5.47;;;4.32;;
78181;SDS011;67441;50.116;8.696;2023-04-19T00:08:30;4.93;;;4.07;;
78181;SDS011;67441;50.116;8.696;2023-04-19T00:09:21;5.63;;;4.40;;
78181;SDS011;67441;50.116;8.696;2023-04-19T00:10:13;5.78;;;4.18;;
78181;SDS011;67441;50.116;8.696;2023-04-19T00:11:04;6.50;;;4.45;;
78181;SDS011;67441;50.116;8.696;2023-04-19T00:11:55;5.55;;;4.70;;
78181;SDS011;67441;50.116;8.696;2023-04-19T00:12:25;4.57;;;4.10;;
78181;SDS011;67441;50.116;8.696;2023-04-19T00:13:16;5.30;;;4.18;;
78181;SDS011;67441;50.116;8.696;2023-04-19T00:14:07;5.65;;;4.22;;
78181;SDS011;67441;50.116;8.696;2023-04-19T00:14:33;5.38;;;4.28;;
78181;SDS011;67441;50.116;8.696;2023-04-19T00:15:24;5.97;;;4.60;;
78181;SDS011;67441;50.116;8.696;2023-04-19T00:16:15;6.50;;;4.80;;
78181;SDS011;67441;50.116;8.696;2023-04-19T00:16:41;6.40;;;4.45;;
78181;SDS011;67441;50.116;8.696;2023-04-19T00:17:07;5.80;;;4.75;;
78181;SDS011;67441;50.116;8.696;2023-04-19T00:17:35;6.15;;;4.20;;
78181;SDS011;67441;50.116;8.696;2023-04-19T00:18:27;5.47;;;4.60;;
78181;SDS011;67441;50.116;8.696;2023-04-19T00:19:18;7.43;;;4.60;;
78181;SDS011;67441;50.116;8.696;2023-04-19T00:20:09;6.75;;;4.95;;
78181;SDS011;67441;50.116;8.696;2023-04-19T00:20:37;5.97;;;4.70;;
78181;SDS011;67441;50.116;8.696;2023-04-19T00:21:03;5.60;;;4.18;;
78181;SDS011;67441;50.116;8.696;2023-04-19T00:21:55;6.25;;;4.72;;
78181;SDS011;67441;50.116;8.696;2023-04-19T00:22:21;5.55;;;4.60;;
78181;SDS011;67441;50.116;8.696;2023-04-19T00:22:47;6.32;;;4.70;;
78181;SDS011;67441;50.116;8.696;2023-04-19T00:23:38;6.18;;;4.70;;
78181;SDS011;67441;50.116;8.696;2023-04-19T00:24:29;5.90;;;4.55;;
78181;SDS011;67441;50.116;8.696;2023-04-19T00:25:20;6.85;;;4.70;;
78181;SDS011;67441;50.116;8.696;2023-04-19T00:26:12;5.38;;;4.38;;
78181;SDS011;67441;50.116;8.696;2023-04-19T00:26:39;5.93;;;4.10;;
78181;SDS011;67441;50.116;8.696;2023-04-19T00:27:30;5.90;;;4.63;;
78181;SDS011;67441;50.116;8.696;2023-04-19T00:28:21;5.85;;;4.57;;
78181;SDS011;67441;50.116;8.696;2023-04-19T00:29:13;5.93;;;4.88;;
78181;SDS011;67441;50.116;8.696;2023-04-19T00:29:39;6.78;;;5.13;;
78181;SDS011;67441;50.116;8.696;2023-04-19T00:30:30;6.50;;;4.88;;
78181;SDS011;67441;50.116;8.696;2023-04-19T00:31:21;6.05;;;4.68;;
78181;SDS011;67441;50.116;8.696;2023-04-19T00:32:12;5.40;;;4.60;;
78181;SDS011;67441;50.116;8.696;2023-04-19T00:33:03;5.35;;;4.70;;
78181;SDS011;67441;50.116;8.696;2023-04-19T00:33:55;6.43;;;4.97;;
78181;SDS011;67441;50.116;8.696;2023-04-19T00:34:21;6.95;;;4.80;;
78181;SDS011;67441;50.116;8.696;2023-04-19T00:35:12;6.07;;;4.70;;
78181;SDS011;67441;50.116;8.696;2023-04-19T00:35:41;5.97;;;4.50;;
78181;SDS011;67441;50.116;8.696;2023-04-19T00:36:06;7.03;;;5.55;;
78181;SDS011;67441;50.116;8.696;2023-04-19T00:36:32;6.15;;;4.93;;
78181;SDS011;67441;50.116;8.696;2023-04-19T00:37:23;5.38;;;4.32;;
78181;SDS011;67441;50.116;8.696;2023-04-19T00:38:14;6.50;;;4.90;;
78181;SDS011;67441;50.116;8.696;2023-04-19T00:39:04;6.07;;;4.72;;
78181;SDS011;67441;50.116;8.696;2023-04-19T00:39:55;6.50;;;5.30;;
78181;SDS011;67441;50.116;8.696;2023-04-19T00:40:47;6.28;;;4.78;;
78181;SDS011;67441;50.116;8.696;2023-04-19T00:41:14;7.03;;;5.20;;
78181;SDS011;67441;50.116;8.696;2023-04-19T00:42:05;6.05;;;4.80;;
78181;SDS011;67441;50.116;8.696;2023-04-19T00:42:56;6.97;;;5.38;;
78181;SDS011;67441;50.116;8.696;2023-04-19T00:43:47;7.50;;;4.72;;
78181;SDS011;67441;50.116;8.696;2023-04-19T00:44:38;6.57;;;5.00;;
78181;SDS011;67441;50.116;8.696;2023-04-19T00:45:29;6.00;;;4.70;;
78181;SDS011;67441;50.116;8.696;2023-04-19T00:45:56;7.38;;;5.07;;
78181;SDS011;67441;50.116;8.696;2023-04-19T00:46:51;6.05;;;4.82;;
78181;SDS011;67441;50.116;8.696;2023-04-19T00:47:18;5.95;;;5.05;;
78181;SDS011;67441;50.116;8.696;2023-04-19T00:48:10;6.80;;;4.75;;
78181;SDS011;67441;50.116;8.696;2023-04-19T00:48:36;7.70;;;5.40;;
78181;SDS011;67441;50.116;8.696;2023-04-19T00:49:27;6.70;;;4.93;;
78181;SDS011;67441;50.116;8.696;2023-04-19T00:49:53;6.97;;;5.00;;
78181;SDS011;67441;50.116;8.696;2023-04-19T00:50:45;6.28;;;5.00;;
78181;SDS011;67441;50.116;8.696;2023-04-19T00:51:36;6.47;;;5.45;;
78181;SDS011;67441;50.116;8.696;2023-04-19T00:52:27;6.90;;;4.95;;
78181;SDS011;67441;50.116;8.696;2023-04-19T00:53:20;7.15;;;5.00;;
78181;SDS011;67441;50.116;8.696;2023-04-19T00:53:45;7.13;;;6.13;;
78181;SDS011;67441;50.116;8.696;2023-04-19T00:54:12;7.28;;;4.80;;
78181;SDS011;67441;50.116;8.696;2023-04-19T00:54:38;6.75;;;5.68;;
78181;SDS011;67441;50.116;8.696;2023-04-19T00:55:05;6.85;;;5.60;;
78181;SDS011;67441;50.116;8.696;2023-04-19T00:55:32;7.20;;;5.90;;
78181;SDS011;67441;50.116;8.696;2023-04-19T00:55:59;6.25;;;5.38;;
78181;SDS011;67441;50.116;8.696;2023-04-19T00:56:28;7.88;;;5.47;;
78181;SDS011;67441;50.116;8.696;2023-04-19T00:56:54;7.63;;;5.97;;
78181;SDS011;67441;50.116;8.696;2023-04-19T00:57:21;6.72;;;5.35;;
78181;SDS011;67441;50.116;8.696;2023-04-19T00:57:47;7.50;;;5.65;;
78181;SDS011;67441;50.116;8.696;2023-04-19T00:58:16;6.70;;;5.20;;
78181;SDS011;67441;50.116;8.696;2023-04-19T00:59:08;8.07;;;5.35;;
78181;SDS011;67441;50.116;8.696;2023-04-19T00:59:59;7.00;;;5.05;;
78181;SDS011;67441;50.116;8.696;2023-04-19T01:00:28;7.35;;;5.53;;
78181;SDS011;67441;50.116;8.696;2023-04-19T01:00:54;7.43;;;5.18;;
78181;SDS011;67441;50.116;8.696;2023-04-19T01:01:20;6.90;;;5.20;;
78181;SDS011;67441;50.116;8.696;2023-04-19T01:02:14;7.57;;;5.32;;
78181;SDS011;67441;50.116;8.696;2023-04-19T01:02:39;7.82;;;5.60;;
78181;SDS011;67441;50.116;8.696;2023-04-19T01:03:06;7.10;;;5.45;;
78181;SDS011;67441;50.116;8.696;2023-04-19T01:03:32;7.55;;;5.72;;
78181;SDS011;67441;50.116;8.696;2023-04-19T01:04:24;7.85;;;5.57;;
78181;SDS011;67441;50.116;8.696;2023-04-19T01:05:16;6.90;;;5.35;;
78181;SDS011;67441;50.116;8.696;2023-04-19T01:06:07;8.52;;;5.65;;
78181;SDS011;67441;50.116;8.696;2023-04-19T01:07:00;7.97;;;5.78;;
78181;SDS011;67441;50.116;8.696;2023-04-19T01:07:27;7.20;;;5.85;;
78181;SDS011;67441;50.116;8.696;2023-04-19T01:08:18;8.65;;;5.80;;
78181;SDS011;67441;50.116;8.696;2023-04-19T01:09:08;7.10;;;5.60;;
78181;SDS011;67441;50.116;8.696;2023-04-19T01:10:03;8.25;;;5.90;;
78181;SDS011;67441;50.116;8.696;2023-04-19T01:10:30;7.60;;;5.93;;
78181;SDS011;67441;50.116;8.696;2023-04-19T01:11:24;8.73;;;6.10;;
78181;SDS011;67441;50.116;8.696;2023-04-19T01:11:49;7.97;;;6.07;;
78181;SDS011;67441;50.116;8.696;2023-04-19T01:12:15;7.80;;;5.60;;
78181;SDS011;67441;50.116;8.696;2023-04-19T01:13:06;7.18;;;5.50;;
78181;SDS011;67441;50.116;8.696;2023-04-19T01:13:57;7.72;;;5.78;;
78181;SDS011;67441;50.116;8.696;2023-04-19T01:14:48;8.23;;;5.88;;
78181;SDS011;67441;50.116;8.696;2023-04-19T01:15:14;8.80;;;6.07;;
78181;SDS011;67441;50.116;8.696;2023-04-19T01:16:05;7.00;;;5.55;;
78181;SDS011;67441;50.116;8.696;2023-04-19T01:16:57;6.63;;;5.60;;
78181;SDS011;67441;50.116;8.696;2023-04-19T01:17:49;8.32;;;5.78;;
78181;SDS011;67441;50.116;8.696;2023-04-19T01:18:41;7.32;;;5.50;;
78181;SDS011;67441;50.116;8.696;2023-04-19T01:19:32;7.90;;;6.03;;
78181;SDS011;67441;50.116;8.696;2023-04-19T01:19:59;7.97;;;6.45;;
78181;SDS011;67441;50.116;8.696;2023-04-19T01:20:25;9.27;;;6.10;;
78181;SDS011;67441;50.116;8.696;2023-04-19T01:21:17;7.47;;;5.75;;
78181;SDS011;67441;50.116;8.696;2023-04-19T01:22:08;8.80;;;6.15;;
78181;SDS011;67441;50.116;8.696;2023-04-19T01:23:01;8.68;;;6.63;;
78181;SDS011;67441;50.116;8.696;2023-04-19T01:23:52;7.82;;;6.07;;
78181;SDS011;67441;50.116;8.696;2023-04-19T01:24:43;8.82;;;6.15;;
78181;SDS011;67441;50.116;8.696;2023-04-19T01:25:35;9.07;;;6.32;;
78181;SDS011;67441;50.116;8.696;2023-04-19T01:26:01;8.30;;;5.88;;
78181;SDS011;67441;50.116;8.696;2023-04-19T01:26:52;8.57;;;6.38;;
78181;SDS011;67441;50.116;8.696;2023-04-19T01:27:43;7.90;;;6.57;;
78181;SDS011;67441;50.116;8.696;2023-04-19T01:28:37;9.10;;;6.18;;
78181;SDS011;67441;50.116;8.696;2023-04-19T01:29:04;9.07;;;6.43;;
78181;SDS011;67441;50.116;8.696;2023-04-19T01:29:30;10.35;;;6.45;;
78181;SDS011;67441;50.116;8.696;2023-04-19T01:29:57;9.15;;;7.13;;
78181;SDS011;67441;50.116;8.696;2023-04-19T01:30:48;9.32;;;6.88;;
78181;SDS011;67441;50.116;8.696;2023-04-19T01:31:18;7.53;;;6.10;;
78181;SDS011;67441;50.116;8.696;2023-04-19T01:31:44;8.32;;;6.72;;
78181;SDS011;67441;50.116;8.696;2023-04-19T01:32:17;8.73;;;6.75;;
78181;SDS011;67441;50.116;8.696;2023-04-19T01:33:08;10.20;;;6.75;;
78181;SDS011;67441;50.116;8.696;2023-04-19T01:33:59;9.57;;;7.05;;
78181;SDS011;67441;50.116;8.696;2023-04-19T01:34:25;8.68;;;6.68;;
78181;SDS011;67441;50.116;8.696;2023-04-19T01:35:16;9.27;;;6.75;;
78181;SDS011;67441;50.116;8.696;2023-04-19T01:36:07;9.23;;;6.47;;
78181;SDS011;67441;50.116;8.696;2023-04-19T01:36:58;8.88;;;6.82;;
78181;SDS011;67441;50.116;8.696;2023-04-19T01:37:49;8.65;;;5.90;;
78181;SDS011;67441;50.116;8.696;2023-04-19T01:38:42;9.93;;;6.35;;
78181;SDS011;67441;50.116;8.696;2023-04-19T01:39:34;8.77;;;6.40;;
78181;SDS011;67441;50.116;8.696;2023-04-19T01:40:25;8.20;;;6.30;;
78181;SDS011;67441;50.116;8.696;2023-04-19T01:41:17;9.55;;;6.57;;
78181;SDS011;67441;50.116;8.696;2023-04-19T01:41:44;10.18;;;7.07;;
78181;SDS011;67441;50.116;8.696;2023-04-19T01:42:10;8.32;;;6.38;;
78181;SDS011;67441;50.116;8.696;2023-04-19T01:43:00;9.93;;;6.80;;
78181;SDS011;67441;50.116;8.696;2023-04-19T01:43:51;9.45;;;6.65;;
78181;SDS011;67441;50.116;8.696;2023-04-19T01:44:20;9.52;;;6.78;;
78181;SDS011;67441;50.116;8.696;2023-04-19T01:44:46;8.35;;;6.72;;
78181;SDS011;67441;50.116;8.696;2023-04-19T01:45:37;10.20;;;6.80;;
78181;SDS011;67441;50.116;8.696;2023-04-19T01:46:28;8.80;;;6.55;;
78181;SDS011;67441;50.116;8.696;2023-04-19T01:47:20;8.60;;;6.32;;
78181;SDS011;67441;50.116;8.696;2023-04-19T01:48:11;8.60;;;6.88;;
78181;SDS011;67441;50.116;8.696;2023-04-19T01:49:01;10.13;;;7.18;;
78181;SDS011;67441;50.116;8.696;2023-04-19T01:49:53;10.20;;;7.38;;
78181;SDS011;67441;50.116;8.696;2023-04-19T01:50:44;9.00;;;6.60;;
78181;SDS011;67441;50.116;8.696;2023-04-19T01:51:37;9.68;;;7.13;;
78181;SDS011;67441;50.116;8.696;2023-04-19T01:52:02;9.43;;;7.32;;
78181;SDS011;67441;50.116;8.696;2023-04-19T01:52:53;8.95;;;6.93;;
78181;SDS011;67441;50.116;8.696;2023-04-19T01:53:44;11.32;;;7.00;;
78181;SDS011;67441;50.116;8.696;2023-04-19T01:54:34;10.70;;;7.18;;
78181;SDS011;67441;50.116;8.696;2023-04-19T01:55:25;10.35;;;7.10;;
78181;SDS011;67441;50.116;8.696;2023-04-19T01:56:19;10.18;;;7.00;;
78181;SDS011;67441;50.116;8.696;2023-04-19T01:56:45;10.13;;;7.28;;
78181;SDS011;67441;50.116;8.696;2023-04-19T01:57:11;10.00;;;7.00;;
78181;SDS011;67441;50.116;8.696;2023-04-19T01:58:02;9.88;;;7.28;;
78181;SDS011;67441;50.116;8.696;2023-04-19T01:58:53;9.30;;;6.97;;
78181;SDS011;67441;50.116;8.696;2023-04-19T01:59:44;9.40;;;7.25;;
78181;SDS011;67441;50.116;8.696;2023-04-19T02:00:35;9.65;;;7.22;;
78181;SDS011;67441;50.116;8.696;2023-04-19T02:01:01;10.80;;;7.75;;
78181;SDS011;67441;50.116;8.696;2023-04-19T02:01:52;10.02;;;7.50;;
78181;SDS011;67441;50.116;8.696;2023-04-19T02:02:43;10.27;;;7.20;;
78181;SDS011;67441;50.116;8.696;2023-04-19T02:03:34;10.02;;;6.93;;
78181;SDS011;67441;50.116;8.696;2023-04-19T02:04:26;10.70;;;7.50;;
78181;SDS011;67441;50.116;8.696;2023-04-19T02:04:55;10.50;;;7.22;;
78181;SDS011;67441;50.116;8.696;2023-04-19T02:05:21;9.82;;;7.63;;
78181;SDS011;67441;50.116;8.696;2023-04-19T02:05:47;9.75;;;7.78;;
78181;SDS011;67441;50.116;8.696;2023-04-19T02:06:38;8.73;;;6.55;;
78181;SDS011;67441;50.116;8.696;2023-04-19T02:07:29;10.55;;;8.07;;
78181;SDS011;67441;50.116;8.696;2023-04-19T02:08:20;9.27;;;7.63;;
78181;SDS011;67441;50.116;8.696;2023-04-19T02:09:11;11.38;;;7.53;;
78181;SDS011;67441;50.116;8.696;2023-04-19T02:10:02;9.80;;;7.78;;
78181;SDS011;67441;50.116;8.696;2023-04-19T02:10:29;10.48;;;7.40;;
78181;SDS011;67441;50.116;8.696;2023-04-19T02:11:20;11.18;;;7.57;;
78181;SDS011;67441;50.116;8.696;2023-04-19T02:12:11;10.73;;;7.95;;
78181;SDS011;67441;50.116;8.696;2023-04-19T02:13:02;10.40;;;7.43;;
78181;SDS011;67441;50.116;8.696;2023-04-19T02:13:53;11.15;;;6.97;;
78181;SDS011;67441;50.116;8.696;2023-04-19T02:14:44;11.40;;;7.50;;
78181;SDS011;67441;50.116;8.696;2023-04-19T02:15:35;10.07;;;7.40;;
78181;SDS011;67441;50.116;8.696;2023-04-19T02:16:01;12.00;;;7.75;;
78181;SDS011;67441;50.116;8.696;2023-04-19T02:16:28;11.98;;;7.85;;
78181;SDS011;67441;50.116;8.696;2023-04-19T02:17:18;11.00;;;7.75;;
78181;SDS011;67441;50.116;8.696;2023-04-19T02:18:10;11.77;;;8.27;;
78181;SDS011;67441;50.116;8.696;2023-04-19T02:18:37;12.48;;;8.77;;
78181;SDS011;67441;50.116;8.696;2023-04-19T02:19:28;11.13;;;7.88;;
78181;SDS011;67441;50.116;8.696;2023-04-19T02:20:19;11.60;;;8.18;;
78181;SDS011;67441;50.116;8.696;2023-04-19T02:21:10;11.40;;;7.88;;
78181;SDS011;67441;50.116;8.696;2023-04-19T02:22:02;11.00;;;7.45;;
78181;SDS011;67441;50.116;8.696;2023-04-19T02:22:28;10.88;;;8.35;;
78181;SDS011;67441;50.116;8.696;2023-04-19T02:23:18;11.30;;;7.85;;
78181;SDS011;67441;50.116;8.696;2023-04-19T02:24:09;10.88;;;7.95;;
78181;SDS011;67441;50.116;8.696;2023-04-19T02:25:00;12.68;;;8.80;;
78181;SDS011;67441;50.116;8.696;2023-04-19T02:25:52;12.23;;;8.35;;
78181;SDS011;67441;50.116;8.696;2023-04-19T02:26:44;11.45;;;7.85;;
78181;SDS011;67441;50.116;8.696;2023-04-19T02:27:35;11.02;;;8.15;;
78181;SDS011;67441;50.116;8.696;2023-04-19T02:28:26;13.88;;;8.35;;
78181;SDS011;67441;50.116;8.696;2023-04-19T02:29:17;10.50;;;7.93;;
78181;SDS011;67441;50.116;8.696;2023-04-19T02:30:08;11.73;;;7.75;;
78181;SDS011;67441;50.116;8.696;2023-04-19T02:31:03;11.50;;;7.88;;
78181;SDS011;67441;50.116;8.696;2023-04-19T02:31:29;11.93;;;7.68;;
78181;SDS011;67441;50.116;8.696;2023-04-19T02:32:21;12.07;;;8.35;;
78181;SDS011;67441;50.116;8.696;2023-04-19T02:33:13;11.50;;;8.27;;
78181;SDS011;67441;50.116;8.696;2023-04-19T02:33:39;12.18;;;8.20;;
78181;SDS011;67441;50.116;8.696;2023-04-19T02:34:31;14.13;;;8.18;;
78181;SDS011;67441;50.116;8.696;2023-04-19T02:34:56;11.88;;;8.23;;
78181;SDS011;67441;50.116;8.696;2023-04-19T02:35:47;11.05;;;8.60;;
78181;SDS011;67441;50.116;8.696;2023-04-19T02:36:38;11.35;;;8.57;;
78181;SDS011;67441;50.116;8.696;2023-04-19T02:37:29;12.05;;;8.65;;
78181;SDS011;67441;50.116;8.696;2023-04-19T02:38:20;11.90;;;8.35;;
78181;SDS011;67441;50.116;8.696;2023-04-19T02:39:11;13.05;;;7.90;;
78181;SDS011;67441;50.116;8.696;2023-04-19T02:40:01;12.52;;;8.48;;
78181;SDS011;67441;50.116;8.696;2023-04-19T02:40:29;11.55;;;8.20;;
78181;SDS011;67441;50.116;8.696;2023-04-19T02:41:20;12.48;;;8.43;;
78181;SDS011;67441;50.116;8.696;2023-04-19T02:42:11;11.82;;;8.60;;
78181;SDS011;67441;50.116;8.696;2023-04-19T02:43:02;12.90;;;8.73;;
78181;SDS011;67441;50.116;8.696;2023-04-19T02:43:54;12.07;;;7.93;;
78181;SDS011;67441;50.116;8.696;2023-04-19T02:44:45;13.75;;;8.85;;
78181;SDS011;67441;50.116;8.696;2023-04-19T02:45:36;14.05;;;8.90;;
78181;SDS011;67441;50.116;8.696;2023-04-19T02:46:27;12.60;;;8.57;;
78181;SDS011;67441;50.116;8.696;2023-04-19T02:47:20;12.75;;;9.30;;
78181;SDS011;67441;50.116;8.696;2023-04-19T02:48:11;12.23;;;8.88;;
78181;SDS011;67441;50.116;8.696;2023-04-19T02:49:02;12.45;;;8.57;;
78181;SDS011;67441;50.116;8.696;2023-04-19T02:49:57;13.82;;;9.00;;
78181;SDS011;67441;50.116;8.696;2023-04-19T02:50:25;13.15;;;8.88;;
78181;SDS011;67441;50.116;8.696;2023-04-19T02:50:51;13.18;;;9.38;;
78181;SDS011;67441;50.116;8.696;2023-04-19T02:51:18;13.68;;;9.75;;
78181;SDS011;67441;50.116;8.696;2023-04-19T02:51:44;13.82;;;9.35;;
78181;SDS011;67441;50.116;8.696;2023-04-19T02:52:10;14.55;;;10.13;;
78181;SDS011;67441;50.116;8.696;2023-04-19T02:53:01;12.65;;;9.07;;
78181;SDS011;67441;50.116;8.696;2023-04-19T02:53:29;13.93;;;9.18;;
78181;SDS011;67441;50.116;8.696;2023-04-19T02:54:20;13.95;;;9.40;;
78181;SDS011;67441;50.116;8.696;2023-04-19T02:55:12;12.98;;;8.90;;
78181;SDS011;67441;50.116;8.696;2023-04-19T02:56:03;13.85;;;9.20;;
78181;SDS011;67441;50.116;8.696;2023-04-19T02:56:54;13.27;;;8.80;;
78181;SDS011;67441;50.116;8.696;2023-04-19T02:57:20;13.77;;;9.13;;
78181;SDS011;67441;50.116;8.696;2023-04-19T02:58:12;13.32;;;9.80;;
78181;SDS011;67441;50.116;8.696;2023-04-19T02:59:04;12.52;;;9.00;;
78181;SDS011;67441;50.116;8.696;2023-04-19T02:59:30;13.25;;;9.10;;
78181;SDS011;67441;50.116;8.696;2023-04-19T02:59:55;13.82;;;9.45;;
78181;SDS011;67441;50.116;8.696;2023-04-19T03:00:47;15.18;;;10.50;;
78181;SDS011;67441;50.116;8.696;2023-04-19T03:01:38;15.20;;;9.60;;
78181;SDS011;67441;50.116;8.696;2023-04-19T03:02:29;13.98;;;9.18;;
78181;SDS011;67441;50.116;8.696;2023-04-19T03:03:21;13.98;;;9.00;;
78181;SDS011;67441;50.116;8.696;2023-04-19T03:04:12;13.93;;;9.75;;
78181;SDS011;67441;50.116;8.696;2023-04-19T03:05:03;14.27;;;9.55;;
78181;SDS011;67441;50.116;8.696;2023-04-19T03:05:29;13.93;;;9.98;;
78181;SDS011;67441;50.116;8.696;2023-04-19T03:06:20;13.13;;;9.15;;
78181;SDS011;67441;50.116;8.696;2023-04-19T03:07:11;13.20;;;9.57;;
78181;SDS011;67441;50.116;8.696;2023-04-19T03:08:02;15.52;;;10.40;;
78181;SDS011;67441;50.116;8.696;2023-04-19T03:08:53;14.15;;;9.85;;
78181;SDS011;67441;50.116;8.696;2023-04-19T03:09:44;13.45;;;9.13;;
78181;SDS011;67441;50.116;8.696;2023-04-19T03:10:35;14.65;;;9.55;;
78181;SDS011;67441;50.116;8.696;2023-04-19T03:11:26;16.10;;;10.18;;
78181;SDS011;67441;50.116;8.696;2023-04-19T03:12:17;14.38;;;10.63;;
78181;SDS011;67441;50.116;8.696;2023-04-19T03:13:07;14.77;;;10.15;;
78181;SDS011;67441;50.116;8.696;2023-04-19T03:13:59;16.17;;;11.15;;
78181;SDS011;67441;50.116;8.696;2023-04-19T03:14:50;15.13;;;10.43;;
78181;SDS011;67441;50.116;8.696;2023-04-19T03:15:42;14.82;;;10.30;;
78181;SDS011;67441;50.116;8.696;2023-04-19T03:16:08;15.35;;;10.02;;
78181;SDS011;67441;50.116;8.696;2023-04-19T03:16:59;13.80;;;9.90;;
78181;SDS011;67441;50.116;8.696;2023-04-19T03:17:50;16.60;;;10.55;;
78181;SDS011;67441;50.116;8.696;2023-04-19T03:18:41;13.95;;;10.02;;
78181;SDS011;67441;50.116;8.696;2023-04-19T03:19:32;15.95;;;10.43;;
78181;SDS011;67441;50.116;8.696;2023-04-19T03:20:23;15.95;;;10.77;;
78181;SDS011;67441;50.116;8.696;2023-04-19T03:20:50;16.42;;;10.88;;
78181;SDS011;67441;50.116;8.696;2023-04-19T03:21:15;15.27;;;10.55;;
78181;SDS011;67441;50.116;8.696;2023-04-19T03:22:06;14.40;;;9.90;;
78181;SDS011;67441;50.116;8.696;2023-04-19T03:22:58;13.18;;;9.38;;
78181;SDS011;67441;50.116;8.696;2023-04-19T03:23:50;14.35;;;9.75;;
78181;SDS011;67441;50.116;8.696;2023-04-19T03:24:17;13.15;;;9.60;;
78181;SDS011;67441;50.116;8.696;2023-04-19T03:24:43;16.10;;;9.93;;
78181;SDS011;67441;50.116;8.696;2023-04-19T03:25:46;14.93;;;9.57;;
78181;SDS011;67441;50.116;8.696;2023-04-19T03:26:12;14.55;;;10.45;;
78181;SDS011;67441;50.116;8.696;2023-04-19T03:26:40;13.85;;;9.85;;
78181;SDS011;67441;50.116;8.696;2023-04-19T03:27:33;16.77;;;10.63;;
78181;SDS011;67441;50.116;8.696;2023-04-19T03:28:06;14.68;;;9.75;;
78181;SDS011;67441;50.116;8.696;2023-04-19T03:28:32;15.30;;;10.60;;
78181;SDS011;67441;50.116;8.696;2023-04-19T03:28:59;14.80;;;10.48;;
78181;SDS011;67441;50.116;8.696;2023-04-19T03:29:25;15.80;;;10.50;;
78181;SDS011;67441;50.116;8.696;2023-04-19T03:30:17;13.45;;;9.70;;
78181;SDS011;67441;50.116;8.696;2023-04-19T03:31:07;14.82;;;10.68;;
78181;SDS011;67441;50.116;8.696;2023-04-19T03:31:59;16.27;;;9.93;;
78181;SDS011;67441;50.116;8.696;2023-04-19T03:32:25;13.43;;;9.85;;
78181;SDS011;67441;50.116;8.696;2023-04-19T03:32:51;14.43;;;10.25;;
78181;SDS011;67441;50.116;8.696;2023-04-19T03:33:42;13.77;;;10.00;;
78181;SDS011;67441;50.116;8.696;2023-04-19T03:34:34;13.88;;;9.90;;
78181;SDS011;67441;50.116;8.696;2023-04-19T03:35:00;16.10;;;10.57;;
78181;SDS011;67441;50.116;8.696;2023-04-19T03:35:53;15.73;;;10.55;;
78181;SDS011;67441;50.116;8.696;2023-04-19T03:36:49;13.13;;;10.00;;
78181;SDS011;67441;50.116;8.696;2023-04-19T03:37:19;14.80;;;10.25;;
78181;SDS011;67441;50.116;8.696;2023-04-19T03:37:54;14.77;;;10.23;;
78181;SDS011;67441;50.116;8.696;2023-04-19T03:38:29;13.45;;;10.00;;
78181;SDS011;67441;50.116;8.696;2023-04-19T03:39:20;15.38;;;11.38;;
78181;SDS011;67441;50.116;8.696;2023-04-19T03:40:11;14.10;;;10.07;;
78181;SDS011;67441;50.116;8.696;2023-04-19T03:41:02;15.05;;;10.82;;
78181;SDS011;67441;50.116;8.696;2023-04-19T03:41:57;16.20;;;10.88;;
78181;SDS011;67441;50.116;8.696;2023-04-19T03:42:23;15.45;;;10.48;;
78181;SDS011;67441;50.116;8.696;2023-04-19T03:42:49;16.17;;;11.15;;
78181;SDS011;67441;50.116;8.696;2023-04-19T03:43:39;14.38;;;10.23;;
78181;SDS011;67441;50.116;8.696;2023-04-19T03:44:31;14.93;;;10.52;;
78181;SDS011;67441;50.116;8.696;2023-04-19T03:44:57;16.88;;;10.82;;
78181;SDS011;67441;50.116;8.696;2023-04-19T03:45:48;15.35;;;10.43;;
78181;SDS011;67441;50.116;8.696;2023-04-19T03:46:38;14.25;;;10.32;;
78181;SDS011;67441;50.116;8.696;2023-04-19T03:47:29;13.20;;;10.52;;
78181;SDS011;67441;50.116;8.696;2023-04-19T03:48:23;15.82;;;10.75;;
78181;SDS011;67441;50.116;8.696;2023-04-19T03:49:15;15.75;;;11.00;;
78181;SDS011;67441;50.116;8.696;2023-04-19T03:50:06;14.18;;;10.60;;
78181;SDS011;67441;50.116;8.696;2023-04-19T03:50:32;15.48;;;10.65;;
78181;SDS011;67441;50.116;8.696;2023-04-19T03:50:58;14.85;;;11.13;;
78181;SDS011;67441;50.116;8.696;2023-04-19T03:51:23;14.82;;;10.57;;
78181;SDS011;67441;50.116;8.696;2023-04-19T03:51:49;18.38;;;12.90;;
78181;SDS011;67441;50.116;8.696;2023-04-19T03:52:41;15.43;;;10.95;;
78181;SDS011;67441;50.116;8.696;2023-04-19T03:53:07;15.93;;;11.32;;
78181;SDS011;67441;50.116;8.696;2023-04-19T03:53:58;15.40;;;10.52;;
78181;SDS011;67441;50.116;8.696;2023-04-19T03:54:24;14.25;;;10.50;;
78181;SDS011;67441;50.116;8.696;2023-04-19T03:54:49;15.10;;;10.93;;
78181;SDS011;67441;50.116;8.696;2023-04-19T03:55:40;15.02;;;10.55;;
78181;SDS011;67441;50.116;8.696;2023-04-19T03:56:31;13.15;;;9.63;;
78181;SDS011;67441;50.116;8.696;2023-04-19T03:57:22;15.68;;;10.38;;
78181;SDS011;67441;50.116;8.696;2023-04-19T03:58:13;15.02;;;10.35;;
78181;SDS011;67441;50.116;8.696;2023-04-19T03:58:40;15.07;;;10.68;;
78181;SDS011;67441;50.116;8.696;2023-04-19T03:59:31;15.60;;;10.68;;
78181;SDS011;67441;50.116;8.696;2023-04-19T04:00:22;13.88;;;10.82;;
78181;SDS011;67441;50.116;8.696;2023-04-19T04:01:19;13.88;;;10.27;;
78181;SDS011;67441;50.116;8.696;2023-04-19T04:01:46;16.73;;;10.77;;
78181;SDS011;67441;50.116;8.696;2023-04-19T04:02:37;17.70;;;12.40;;
78181;SDS011;67441;50.116;8.696;2023-04-19T04:03:03;15.63;;;10.57;;
78181;SDS011;67441;50.116;8.696;2023-04-19T04:03:54;15.50;;;10.30;;
78181;SDS011;67441;50.116;8.696;2023-04-19T04:04:52;14.82;;;10.70;;
78181;SDS011;67441;50.116;8.696;2023-04-19T04:05:18;12.90;;;9.80;;
78181;SDS011;67441;50.116;8.696;2023-04-19T04:05:44;15.57;;;11.05;;
78181;SDS011;67441;50.116;8.696;2023-04-19T04:06:10;15.13;;;11.05;;
78181;SDS011;67441;50.116;8.696;2023-04-19T04:07:01;14.80;;;10.50;;
78181;SDS011;67441;50.116;8.696;2023-04-19T04:07:52;15.75;;;10.63;;
78181;SDS011;67441;50.116;8.696;2023-04-19T04:08:43;13.88;;;9.65;;
78181;SDS011;67441;50.116;8.696;2023-04-19T04:09:33;16.90;;;10.88;;
78181;SDS011;67441;50.116;8.696;2023-04-19T04:10:25;12.68;;;9.70;;
78181;SDS011;67441;50.116;8.696;2023-04-19T04:11:17;14.75;;;10.02;;
78181;SDS011;67441;50.116;8.696;2023-04-19T04:11:42;14.15;;;9.88;;
78181;SDS011;67441;50.116;8.696;2023-04-19T04:12:33;15.63;;;10.23;;
78181;SDS011;67441;50.116;8.696;2023-04-19T04:13:25;13.18;;;9.40;;
78181;SDS011;67441;50.116;8.696;2023-04-19T04:14:16;14.02;;;9.63;;
78181;SDS011;67441;50.116;8.696;2023-04-19T04:15:07;14.10;;;10.30;;
78181;SDS011;67441;50.116;8.696;2023-04-19T04:15:58;12.20;;;8.90;;
78181;SDS011;67441;50.116;8.696;2023-04-19T04:16:24;16.00;;;10.15;;
78181;SDS011;67441;50.116;8.696;2023-04-19T04:17:15;14.25;;;9.38;;
78181;SDS011;67441;50.116;8.696;2023-04-19T04:18:06;12.65;;;9.45;;